Jardin Guanabara Heliport

SIGA · Estado do Rio, Brasil

História da METAR SIGA · Jardin Guanabara Heliport

Abaixo você vê METARs dos últimos dias. Selecione um ano para navegar pelos METARs mais antigos, a partir do ano 2007.

15 de abril de 2024

Hora Código Clima Temp. Visibilidade Tecto Vento METAR/SPECI
05:00
V
23 °C 10 km+ - 150° 150° 2 kt METAR SBGL 150800Z 15002KT CAVOK 23/20 Q1015
04:00
V
23 °C 10 km+ - 120° 120° 2 kt METAR SBGL 150700Z 12002KT CAVOK 23/20 Q1015
03:00
V
23 °C 10 km+ - 150° 150° 4 kt METAR SBGL 150600Z 15004KT CAVOK 23/20 Q1015
02:00
V
23 °C 10 km+ - 160° 160° 2 kt METAR SBGL 150500Z 16002KT CAVOK 23/20 Q1015
01:00
V
23 °C 10 km+ - 150° 150° 3 kt METAR SBGL 150400Z 15003KT CAVOK 23/20 Q1016
00:00
V
24 °C 10 km+ - 120° 120° 4 kt METAR SBGL 150300Z 12004KT 9999 FEW040 SCT080 24/20 Q1016

14 de abril de 2024

Hora Código Clima Temp. Visibilidade Tecto Vento METAR/SPECI
23:00
V
24 °C 10 km+ - 120° 120° 6 kt METAR SBGL 150200Z 12006KT 9999 FEW040 24/20 Q1016
22:00
V
24 °C 10 km+ - 110° 110° 5 kt METAR SBGL 150100Z 11005KT 9999 FEW032 24/20 Q1016
21:00
V
24 °C 10 km+ - 100° 100° 9 kt METAR SBGL 150000Z 10009KT 9999 FEW040 24/20 Q1016
20:00
V
25 °C 10 km+ - 090° 090° 13 kt METAR SBGL 142300Z 09013KT 9999 FEW030 25/21 Q1015
19:00
V
25 °C 10 km+ - 100° 100° 11 kt METAR SBGL 142200Z 10011KT 9999 FEW030 25/21 Q1015
18:00
V
26 °C 10 km+ - 110° 110° 9 kt METAR SBGL 142100Z 11009KT 9999 FEW012 SCT025 26/21 Q1014
17:00
V
26 °C 10 km+ - 140° 140° 7 kt METAR SBGL 142000Z 14007KT 9999 FEW025 26/22 Q1014
16:00
V
27 °C 10 km+ - 150° 150° 6 kt METAR SBGL 141900Z 15006KT 9999 FEW025 27/22 Q1014
15:00
V
28 °C 10 km+ - 140° 140° 7 kt METAR SBGL 141800Z 14007KT 9999 FEW025 28/22 Q1014
14:00
V
28 °C 10 km+ - 120° 120° 6 kt METAR SBGL 141700Z 12006KT 9999 FEW025 28/22 Q1014
13:00
V
28 °C 10 km+ - 130° 130° 4 kt METAR SBGL 141600Z 13004KT 9999 FEW025 28/21 Q1014
12:00
V
27 °C 10 km+ - 360° 360° 5 kt METAR SBGL 141500Z 36005KT 9999 FEW025 27/21 Q1015
11:00
V
27 °C 10 km+ - 030° 030° 3 kt METAR SBGL 141400Z 03003KT 9999 FEW012 27/21 Q1016
10:00
V
27 °C 10 km+ - 110° 110° 4 kt METAR SBGL 141300Z 11004KT 9999 FEW012 27/20 Q1016
09:00
V
26 °C 10 km+ - 120° 120° 5 kt METAR SBGL 141200Z 12005KT 9999 SCT012 26/21 Q1016
08:00
V
24 °C 10 km+ - 090° 090° 2 kt METAR SBGL 141100Z 09002KT 9999 SCT009 24/22 Q1016
07:00
V
23 °C 10 km+ - 110° 110° 3 kt METAR SBGL 141000Z 11003KT 9999 FEW010 23/21 Q1015
06:00
V
22 °C 10 km+ - 100° 100° 2 kt METAR SBGL 140900Z 10002KT CAVOK 22/21 Q1015
05:00
V
23 °C 8 km - 010° 010° 3 kt METAR SBGL 140800Z 01003KT 8000 NSC 23/21 Q1014
04:00
V
23 °C 10 km+ - 350° 350° 5 kt METAR SBGL 140700Z 35005KT CAVOK 23/21 Q1014
03:00
V
23 °C 10 km+ - 040° 040° 5 kt METAR SBGL 140600Z 04005KT CAVOK 23/21 Q1014
02:00
V
24 °C 10 km+ - 120° 120° 6 kt METAR SBGL 140500Z 12006KT CAVOK 24/21 Q1014
01:00
V
24 °C 10 km+ - 110° 110° 6 kt METAR SBGL 140400Z 11006KT CAVOK 24/21 Q1015
00:00
V
24 °C 10 km+ - 100° 100° 8 kt METAR SBGL 140300Z 10008KT CAVOK 24/21 Q1015

13 de abril de 2024

Hora Código Clima Temp. Visibilidade Tecto Vento METAR/SPECI
23:00
V
25 °C 10 km+ - 110° 110° 10 kt METAR SBGL 140200Z 11010KT CAVOK 25/20 Q1015
22:00
V
25 °C 10 km+ - 120° 120° 2 kt METAR SBGL 140100Z 12002KT CAVOK 25/20 Q1015
21:00
V
26 °C 10 km+ - 110° 110° 6 kt METAR SBGL 140000Z 11006KT CAVOK 26/20 Q1015
20:00
V
27 °C 10 km+ - 110° 110° 10 kt METAR SBGL 132300Z 11010KT CAVOK 27/20 Q1015
19:00
V
26 °C 10 km+ - 150° 150° 8 kt METAR SBGL 132200Z 15008KT 9999 FEW020 SCT100 26/21 Q1014
18:00
V
27 °C 10 km+ - 150° 150° 10 kt METAR SBGL 132100Z 15010KT 9999 FEW020 27/21 Q1014
17:00
V
28 °C 10 km+ - 130° 130° 11 kt METAR SBGL 132000Z 13011KT 9999 FEW020 28/21 Q1014
16:00
V
29 °C 10 km+ - 140° 140° 11 kt METAR SBGL 131900Z 14011KT 9999 FEW020 29/21 Q1014
15:00
V
29 °C 10 km+ - 140° 140° 11 kt METAR SBGL 131800Z 14011KT 9999 FEW020 29/21 Q1014
14:00
V
29 °C 10 km+ - 140° 140° 12 kt METAR SBGL 131700Z 14012KT 9999 FEW020 29/21 Q1015
13:00
V
31 °C 10 km+ - 130° 130° 10 kt METAR SBGL 131600Z 13010KT 9999 FEW020 31/21 Q1016
12:00
V
30 °C 10 km+ - 080° 080° 9 kt METAR SBGL 131500Z 08009KT 9999 FEW020 30/19 Q1017
11:00
V
28 °C 10 km+ - 030° 030° 8 kt METAR SBGL 131400Z 03008KT 9999 FEW019 28/19 Q1017
10:00
V
27 °C 10 km+ - 010° 010° 7 kt METAR SBGL 131300Z 01007KT 9999 FEW019 27/22 Q1018
09:00
V
26 °C 10 km+ - 150° 150° 7 kt METAR SBGL 131200Z 15007KT 9999 FEW015 26/22 Q1018
08:00
V
25 °C 10 km+ - 140° 140° 4 kt METAR SBGL 131100Z 14004KT 9999 FEW011 25/22 Q1018
07:00
V
24 °C 10 km+ - 090° 090° 4 kt METAR SBGL 131000Z 09004KT 9999 FEW025 24/22 Q1018
06:00
V
23 °C 10 km+ - 110° 110° 2 kt METAR SBGL 130900Z 11002KT 9999 FEW011 23/21 Q1017
05:00
V
23 °C 10 km+ - 100° 100° 2 kt METAR SBGL 130800Z 10002KT 9999 FEW015 23/21 Q1016
04:00
V
23 °C 10 km+ - 110° 110° 4 kt METAR SBGL 130700Z 11004KT 9999 FEW018 23/21 Q1016
03:00
V
23 °C 10 km+ - 090° 090° 4 kt METAR SBGL 130600Z 09004KT 9999 FEW018 23/21 Q1017
Relatar uma mudança